Time;durP1;ratioP1;P1;durP2;ratioP2;P2;SDS_P1;SDS_P2;PMS_P1;PMS_P2;Temp;Humidity;BMP_temperature;BMP_pressure;BME280_temperature;BME280_humidity;BME280_pressure;Samples;Min_cycle;Max_cycle;Signal;HPM_P1;HPM_P2
2022/05/18 00:00:05;;;;;;;;;;;21.40;62.40;;;;;;4937335;29;20331;-66
2022/05/18 00:02:31;;;;;;;;;;;21.60;61.40;;;;;;4937357;29;19915;-64
2022/05/18 00:04:57;;;;;;;;;;;21.80;60.30;;;;;;4937512;29;19914;-63
2022/05/18 00:07:22;;;;;;;;;;;22.00;60.00;;;;;;4937356;29;20438;-64
2022/05/18 00:09:49;;;;;;;;;;;22.10;59.70;;;;;;4937145;29;19953;-64
2022/05/18 00:12:14;;;;;;;;;;;22.10;59.40;;;;;;4937098;29;19915;-65
2022/05/18 00:14:40;;;;;;;;;;;22.10;59.10;;;;;;4937485;29;20393;-65
2022/05/18 00:17:06;;;;;;;;;;;22.10;59.20;;;;;;4937012;29;19911;-64
2022/05/18 00:19:32;;;;;;;;;;;22.20;58.90;;;;;;4937487;29;19965;-65
2022/05/18 00:21:57;;;;;;;;;;;22.30;59.00;;;;;;4937188;29;19911;-64
2022/05/18 00:24:23;;;;;;;;;;;22.30;59.00;;;;;;4951815;29;19921;-65
2022/05/18 00:26:49;;;;;;;;;;;22.20;59.10;;;;;;4936775;29;19927;-64
2022/05/18 00:29:14;;;;;;;;;;;22.20;59.20;;;;;;4936968;29;19954;-65
2022/05/18 00:31:43;;;;;;;;;;;22.10;59.30;;;;;;4936994;29;20386;-65
2022/05/18 00:34:09;;;;;;;;;;;22.00;59.20;;;;;;4936940;29;19942;-65
2022/05/18 00:36:34;;;;;;;;;;;22.10;59.40;;;;;;4937120;29;20347;-64
2022/05/18 00:39:00;;;;;;;;;;;22.00;59.10;;;;;;4937037;29;19918;-64
2022/05/18 00:41:27;;;;;;;;;;;22.10;59.00;;;;;;4936920;29;20359;-66
2022/05/18 00:43:54;;;;;;;;;;;22.10;58.90;;;;;;4936917;29;19917;-65
2022/05/18 00:46:19;;;;;;;;;;;22.10;58.80;;;;;;4936759;29;19911;-66
2022/05/18 00:48:45;;;;;;;;;;;22.10;58.60;;;;;;4936920;29;19911;-67
2022/05/18 00:51:23;;;;;;;;;;;22.10;58.50;;;;;;4936861;29;20348;-63
2022/05/18 00:53:53;;;;;;;;;;;22.20;58.30;;;;;;4936551;29;20029;-66
2022/05/18 00:56:21;;;;;;;;;;;22.20;58.40;;;;;;4936610;29;19910;-65
2022/05/18 00:58:53;;;;;;;;;;;22.10;58.70;;;;;;4936748;29;19911;-64
2022/05/18 01:01:19;;;;;;;;;;;22.00;59.00;;;;;;4936509;29;20274;-66
2022/05/18 01:03:46;;;;;;;;;;;21.90;59.10;;;;;;4936639;29;19911;-66
2022/05/18 01:06:34;;;;;;;;;;;22.00;59.30;;;;;;4936407;29;19911;-65
2022/05/18 01:09:05;;;;;;;;;;;22.00;59.20;;;;;;4936720;29;20390;-66
2022/05/18 01:11:31;;;;;;;;;;;22.00;59.10;;;;;;4919077;29;19910;-66
2022/05/18 01:13:57;;;;;;;;;;;22.00;59.40;;;;;;4936485;29;19922;-65
2022/05/18 01:16:22;;;;;;;;;;;22.00;59.50;;;;;;4936372;29;19911;-66
2022/05/18 01:18:49;;;;;;;;;;;21.90;59.60;;;;;;4936296;29;19910;-67
2022/05/18 01:21:15;;;;;;;;;;;21.80;59.80;;;;;;4936218;29;19911;-66
2022/05/18 01:23:50;;;;;;;;;;;21.80;60.40;;;;;;4936678;29;19918;-66
2022/05/18 01:26:18;;;;;;;;;;;21.80;60.60;;;;;;4939515;29;20380;-65
2022/05/18 01:28:48;;;;;;;;;;;21.80;60.90;;;;;;4940389;29;19911;-66
2022/05/18 01:31:15;;;;;;;;;;;21.70;61.20;;;;;;4940029;29;19915;-66
2022/05/18 01:33:40;;;;;;;;;;;21.60;61.60;;;;;;4940091;29;19919;-65
2022/05/18 01:36:06;;;;;;;;;;;21.60;61.70;;;;;;4940354;29;19954;-67
2022/05/18 01:38:32;;;;;;;;;;;21.60;61.80;;;;;;4940326;29;19911;-67
2022/05/18 01:40:57;;;;;;;;;;;21.70;61.80;;;;;;4940050;29;19914;-64
2022/05/18 01:43:28;;;;;;;;;;;21.70;62.00;;;;;;4940166;29;20426;-65
2022/05/18 01:45:56;;;;;;;;;;;21.70;61.90;;;;;;4923077;29;20331;-65
2022/05/18 01:48:23;;;;;;;;;;;21.70;62.00;;;;;;4940045;29;19920;-65
2022/05/18 01:50:50;;;;;;;;;;;21.60;62.00;;;;;;4940022;29;19917;-66
2022/05/18 01:53:16;;;;;;;;;;;21.50;61.90;;;;;;4939727;29;20335;-66
2022/05/18 01:55:42;;;;;;;;;;;21.50;62.30;;;;;;4939900;29;19965;-65
2022/05/18 01:58:08;;;;;;;;;;;21.40;63.30;;;;;;4939396;29;19911;-66
2022/05/18 02:00:34;;;;;;;;;;;21.40;62.50;;;;;;4939825;29;19911;-65
2022/05/18 02:02:59;;;;;;;;;;;21.30;62.50;;;;;;4939597;29;19946;-67
2022/05/18 02:05:25;;;;;;;;;;;21.30;62.90;;;;;;4939375;29;19911;-65
2022/05/18 02:07:50;;;;;;;;;;;21.20;63.10;;;;;;4939488;29;19918;-65
2022/05/18 02:10:16;;;;;;;;;;;21.20;63.40;;;;;;4939460;29;19958;-64
2022/05/18 02:12:42;;;;;;;;;;;21.20;63.00;;;;;;4939206;29;19919;-64
2022/05/18 02:15:07;;;;;;;;;;;21.20;63.40;;;;;;4939196;29;19911;-66
2022/05/18 02:17:33;;;;;;;;;;;20.90;64.00;;;;;;4939616;29;19911;-66
2022/05/18 02:20:00;;;;;;;;;;;20.80;64.70;;;;;;4939158;29;19918;-66
2022/05/18 02:22:25;;;;;;;;;;;20.80;64.80;;;;;;4939281;29;19950;-67
2022/05/18 02:24:51;;;;;;;;;;;20.70;65.30;;;;;;4939115;29;19957;-64
2022/05/18 02:27:17;;;;;;;;;;;20.70;65.60;;;;;;4939195;29;19927;-64
2022/05/18 02:29:42;;;;;;;;;;;20.60;65.40;;;;;;4921751;29;19922;-64
2022/05/18 02:32:09;;;;;;;;;;;20.70;65.50;;;;;;4939266;29;19911;-66
2022/05/18 02:34:35;;;;;;;;;;;20.70;65.30;;;;;;4938855;29;19926;-66
2022/05/18 02:37:00;;;;;;;;;;;20.60;65.30;;;;;;4938981;29;19911;-64
2022/05/18 02:39:26;;;;;;;;;;;20.60;65.60;;;;;;4939468;29;19918;-65
2022/05/18 02:41:51;;;;;;;;;;;20.60;65.50;;;;;;4921602;29;19965;-66
2022/05/18 02:44:17;;;;;;;;;;;20.50;65.80;;;;;;4939175;29;19910;-65
2022/05/18 02:46:43;;;;;;;;;;;20.50;66.50;;;;;;4938798;29;19910;-65
2022/05/18 02:49:08;;;;;;;;;;;20.40;66.50;;;;;;4938785;29;19918;-65
2022/05/18 02:51:34;;;;;;;;;;;20.30;66.90;;;;;;4938627;29;19922;-65
2022/05/18 02:54:01;;;;;;;;;;;20.20;67.60;;;;;;4938652;29;19925;-66
2022/05/18 02:56:27;;;;;;;;;;;20.20;67.60;;;;;;4938850;29;19966;-64
2022/05/18 02:58:54;;;;;;;;;;;20.20;67.50;;;;;;4938506;29;20923;-65
2022/05/18 03:01:23;;;;;;;;;;;20.20;67.30;;;;;;4938496;29;20005;-65
2022/05/18 03:03:49;;;;;;;;;;;20.10;67.70;;;;;;4938425;29;19969;-64
2022/05/18 03:06:16;;;;;;;;;;;20.10;67.70;;;;;;4938718;29;19966;-65
2022/05/18 03:08:42;;;;;;;;;;;20.00;67.90;;;;;;4938507;29;19914;-65
2022/05/18 03:11:08;;;;;;;;;;;20.00;68.10;;;;;;4938385;29;19922;-65
2022/05/18 03:13:34;;;;;;;;;;;20.00;67.90;;;;;;4938617;29;19919;-65
2022/05/18 03:16:00;;;;;;;;;;;19.90;67.80;;;;;;4938528;29;20355;-66
2022/05/18 03:18:25;;;;;;;;;;;19.80;68.00;;;;;;4938175;29;19911;-65
2022/05/18 03:23:35;;;;;;;;;;;19.90;67.80;;;;;;4938451;29;20346;-67
2022/05/18 03:26:01;;;;;;;;;;;19.80;67.70;;;;;;4938123;29;19927;-69
2022/05/18 03:28:27;;;;;;;;;;;19.90;67.60;;;;;;4938128;29;20009;-66
2022/05/18 03:30:52;;;;;;;;;;;19.70;67.90;;;;;;4938613;29;20367;-67
2022/05/18 03:33:18;;;;;;;;;;;19.80;67.70;;;;;;4937744;29;19925;-67
2022/05/18 03:35:46;;;;;;;;;;;19.80;67.80;;;;;;4938019;29;19911;-68
2022/05/18 03:38:11;;;;;;;;;;;19.70;67.70;;;;;;4938040;29;20394;-67
2022/05/18 03:40:37;;;;;;;;;;;19.70;67.80;;;;;;4938220;29;19954;-67
2022/05/18 03:43:03;;;;;;;;;;;19.70;67.90;;;;;;4937921;29;19918;-68
2022/05/18 03:45:29;;;;;;;;;;;19.60;68.00;;;;;;4937773;29;19985;-67
2022/05/18 03:47:55;;;;;;;;;;;19.60;68.60;;;;;;4937136;29;19950;-65
2022/05/18 03:50:21;;;;;;;;;;;19.60;68.10;;;;;;4937800;29;19918;-67
2022/05/18 03:52:46;;;;;;;;;;;19.60;67.90;;;;;;4937377;29;19939;-67
2022/05/18 03:55:12;;;;;;;;;;;19.60;68.00;;;;;;4936858;29;19949;-68
2022/05/18 03:57:37;;;;;;;;;;;19.60;67.70;;;;;;4937963;29;19914;-66
2022/05/18 04:00:04;;;;;;;;;;;19.70;67.40;;;;;;4939373;29;20419;-67
2022/05/18 04:02:30;;;;;;;;;;;19.70;68.10;;;;;;4938898;29;19911;-67
2022/05/18 04:04:55;;;;;;;;;;;19.70;67.30;;;;;;4939147;29;19911;-65
2022/05/18 04:07:21;;;;;;;;;;;19.60;67.30;;;;;;4939168;29;20328;-68
2022/05/18 04:09:47;;;;;;;;;;;19.70;67.30;;;;;;4938924;29;19925;-66
2022/05/18 04:12:13;;;;;;;;;;;19.70;67.20;;;;;;4938110;29;19918;-68
2022/05/18 04:14:38;;;;;;;;;;;19.70;68.00;;;;;;4938916;29;19919;-65
2022/05/18 04:17:04;;;;;;;;;;;19.70;67.30;;;;;;4938709;29;19974;-66
2022/05/18 04:19:29;;;;;;;;;;;19.70;66.80;;;;;;4938350;29;19911;-66
2022/05/18 04:21:55;;;;;;;;;;;19.70;66.60;;;;;;4937473;29;20372;-66
2022/05/18 04:24:21;;;;;;;;;;;19.80;66.40;;;;;;4937695;29;19911;-65
2022/05/18 04:26:46;;;;;;;;;;;19.80;65.90;;;;;;4937052;29;20006;-66
2022/05/18 04:29:12;;;;;;;;;;;19.90;65.80;;;;;;4937165;29;20013;-66
2022/05/18 04:31:38;;;;;;;;;;;19.90;65.70;;;;;;4937062;29;19918;-66
2022/05/18 04:34:04;;;;;;;;;;;19.90;65.40;;;;;;4937199;29;19919;-68
2022/05/18 04:36:30;;;;;;;;;;;19.90;64.90;;;;;;4937042;29;19918;-65
2022/05/18 04:38:55;;;;;;;;;;;20.00;64.20;;;;;;4936768;29;19910;-66
2022/05/18 04:41:21;;;;;;;;;;;20.10;63.50;;;;;;4936940;29;19934;-64
2022/05/18 04:43:46;;;;;;;;;;;20.10;63.30;;;;;;4937030;29;20153;-65
2022/05/18 04:46:12;;;;;;;;;;;20.10;63.30;;;;;;4936945;29;19911;-65
2022/05/18 04:48:37;;;;;;;;;;;20.10;62.70;;;;;;4936685;29;19918;-67
2022/05/18 04:51:05;;;;;;;;;;;20.10;62.00;;;;;;4937182;29;19918;-66
2022/05/18 04:53:31;;;;;;;;;;;20.10;61.30;;;;;;4937085;29;19919;-65
2022/05/18 04:55:57;;;;;;;;;;;20.10;60.90;;;;;;4936881;29;19922;-67
2022/05/18 04:58:23;;;;;;;;;;;20.20;60.50;;;;;;4936883;29;19911;-67
2022/05/18 05:00:52;;;;;;;;;;;20.20;59.80;;;;;;4935943;29;19918;-65
2022/05/18 05:03:18;;;;;;;;;;;20.20;59.60;;;;;;4936757;29;19950;-64
2022/05/18 05:05:43;;;;;;;;;;;20.20;59.60;;;;;;4936679;29;20001;-64
2022/05/18 05:08:09;;;;;;;;;;;20.20;58.70;;;;;;4936774;29;19911;-65
2022/05/18 05:10:34;;;;;;;;;;;20.20;58.70;;;;;;4936762;29;19911;-65
2022/05/18 05:13:00;;;;;;;;;;;20.20;58.10;;;;;;4936465;29;19914;-65
2022/05/18 05:15:25;;;;;;;;;;;20.20;57.70;;;;;;4936518;29;19915;-65
2022/05/18 05:17:51;;;;;;;;;;;20.20;57.20;;;;;;4936969;29;19911;-66
2022/05/18 05:20:17;;;;;;;;;;;20.20;56.90;;;;;;4936744;29;19915;-65
2022/05/18 05:22:43;;;;;;;;;;;20.30;57.20;;;;;;4936556;29;20371;-65
2022/05/18 05:25:08;;;;;;;;;;;20.30;56.80;;;;;;4936390;29;20391;-65
2022/05/18 05:27:34;;;;;;;;;;;20.40;56.50;;;;;;4936642;29;19918;-65
2022/05/18 05:29:59;;;;;;;;;;;20.40;55.90;;;;;;4936263;29;19918;-65
2022/05/18 05:32:25;;;;;;;;;;;20.40;55.90;;;;;;4936259;29;19918;-65
2022/05/18 05:34:51;;;;;;;;;;;20.40;55.90;;;;;;4936254;29;19915;-65
2022/05/18 05:37:17;;;;;;;;;;;20.40;55.50;;;;;;4936504;29;20077;-66
2022/05/18 05:39:42;;;;;;;;;;;20.40;55.50;;;;;;4936369;29;20002;-65
2022/05/18 05:42:08;;;;;;;;;;;20.50;55.30;;;;;;4936228;29;19910;-66
2022/05/18 05:44:34;;;;;;;;;;;20.50;54.80;;;;;;4936358;29;19917;-67
2022/05/18 05:47:01;;;;;;;;;;;20.60;54.90;;;;;;4936217;29;19911;-66
2022/05/18 05:49:27;;;;;;;;;;;20.60;54.40;;;;;;4936135;29;19997;-67
2022/05/18 05:51:52;;;;;;;;;;;20.80;53.70;;;;;;4936420;29;19915;-56
2022/05/18 05:54:18;;;;;;;;;;;20.90;53.40;;;;;;4936078;29;19925;-61
2022/05/18 05:56:43;;;;;;;;;;;21.00;52.60;;;;;;4936438;29;20021;-61
2022/05/18 05:59:09;;;;;;;;;;;21.00;51.80;;;;;;4936372;29;19910;-61
2022/05/18 06:01:35;;;;;;;;;;;20.90;51.00;;;;;;4935985;29;20371;-60
2022/05/18 06:04:01;;;;;;;;;;;20.90;51.60;;;;;;4919229;29;20344;-61
2022/05/18 06:06:26;;;;;;;;;;;21.00;51.40;;;;;;4936029;29;19911;-60
2022/05/18 06:08:52;;;;;;;;;;;20.90;51.00;;;;;;4936011;29;19914;-61
2022/05/18 06:11:18;;;;;;;;;;;20.90;51.00;;;;;;4937497;29;19977;-59
2022/05/18 06:13:44;;;;;;;;;;;21.00;51.60;;;;;;4939548;29;19929;-62
2022/05/18 06:16:10;;;;;;;;;;;21.10;51.40;;;;;;4939645;29;19910;-60
2022/05/18 06:18:36;;;;;;;;;;;21.40;51.30;;;;;;4939236;29;20372;-59
2022/05/18 06:21:02;;;;;;;;;;;21.70;51.00;;;;;;4939508;29;19910;-58
2022/05/18 06:23:27;;;;;;;;;;;22.00;49.80;;;;;;4939484;29;19919;-63
2022/05/18 06:25:57;;;;;;;;;;;22.40;49.60;;;;;;4938943;29;20375;-62
2022/05/18 06:28:23;;;;;;;;;;;22.70;48.10;;;;;;4943587;29;20363;-62
2022/05/18 06:30:49;;;;;;;;;;;22.90;47.80;;;;;;4949165;29;19918;-62
2022/05/18 06:33:14;;;;;;;;;;;23.10;46.50;;;;;;4948040;29;19919;-60
2022/05/18 06:35:40;;;;;;;;;;;23.20;47.70;;;;;;4947949;29;19982;-63
2022/05/18 06:38:13;;;;;;;;;;;23.40;44.50;;;;;;4949404;29;19964;-60
2022/05/18 06:43:23;;;;;;;;;;;23.10;45.70;;;;;;4939213;29;19957;-59
2022/05/18 06:45:49;;;;;;;;;;;23.40;46.00;;;;;;4939024;29;19954;-59
2022/05/18 06:48:15;;;;;;;;;;;23.50;46.10;;;;;;4938848;29;19919;-59
2022/05/18 06:50:40;;;;;;;;;;;23.70;45.20;;;;;;4939073;29;19911;-58
2022/05/18 06:53:06;;;;;;;;;;;23.80;45.10;;;;;;4938542;29;20009;-60
2022/05/18 06:55:31;;;;;;;;;;;24.00;44.00;;;;;;4938696;29;19997;-59
2022/05/18 06:57:57;;;;;;;;;;;24.10;43.90;;;;;;4938740;29;19982;-64
2022/05/18 07:00:22;;;;;;;;;;;24.10;43.20;;;;;;4938544;29;19915;-60
2022/05/18 07:02:49;;;;;;;;;;;24.10;42.90;;;;;;4939357;29;19915;-63
2022/05/18 07:05:14;;;;;;;;;;;24.40;42.70;;;;;;4947000;29;19989;-63
2022/05/18 07:07:40;;;;;;;;;;;24.60;43.30;;;;;;4948670;29;19954;-63
2022/05/18 07:10:06;;;;;;;;;;;24.70;42.10;;;;;;4946878;29;19918;-61
2022/05/18 07:12:32;;;;;;;;;;;24.70;41.70;;;;;;4947403;29;19911;-65
2022/05/18 07:14:58;;;;;;;;;;;24.90;41.40;;;;;;4938356;29;19925;-59
2022/05/18 07:17:23;;;;;;;;;;;24.80;40.70;;;;;;4938600;29;20013;-59
2022/05/18 07:19:49;;;;;;;;;;;24.90;39.80;;;;;;4938535;29;19961;-60
2022/05/18 07:22:15;;;;;;;;;;;24.70;39.40;;;;;;4939117;29;19958;-69
2022/05/18 07:24:40;;;;;;;;;;;24.60;40.00;;;;;;4925743;29;19915;-58
2022/05/18 07:27:06;;;;;;;;;;;24.50;39.50;;;;;;4943664;29;19922;-68
2022/05/18 07:29:31;;;;;;;;;;;24.50;39.00;;;;;;4942363;29;19911;-64
2022/05/18 07:32:09;;;;;;;;;;;24.10;39.80;;;;;;4942533;29;19915;-67
2022/05/18 07:34:35;;;;;;;;;;;24.10;40.40;;;;;;4946632;29;19929;-63
2022/05/18 07:37:01;;;;;;;;;;;24.00;40.60;;;;;;4951410;29;20394;-61
2022/05/18 07:39:30;;;;;;;;;;;24.00;40.40;;;;;;4952966;29;19946;-63
2022/05/18 07:41:56;;;;;;;;;;;23.80;40.10;;;;;;4947759;29;20290;-60
2022/05/18 07:44:22;;;;;;;;;;;23.70;40.70;;;;;;4946647;29;19910;-61
2022/05/18 07:46:48;;;;;;;;;;;23.70;40.60;;;;;;4947999;29;20012;-61
2022/05/18 07:49:13;;;;;;;;;;;23.80;40.30;;;;;;4946295;29;19911;-69
2022/05/18 07:51:39;;;;;;;;;;;23.80;39.70;;;;;;4946798;29;20282;-61
2022/05/18 07:54:04;;;;;;;;;;;23.80;39.60;;;;;;4947821;29;19922;-57
2022/05/18 07:56:30;;;;;;;;;;;23.80;39.70;;;;;;4945798;29;19914;-60
2022/05/18 07:58:56;;;;;;;;;;;23.90;39.30;;;;;;4941786;29;19911;-59
2022/05/18 08:01:21;;;;;;;;;;;24.00;39.20;;;;;;4937488;29;19998;-61
2022/05/18 08:03:50;;;;;;;;;;;24.20;39.30;;;;;;4937902;29;19915;-65
2022/05/18 08:06:15;;;;;;;;;;;24.20;38.40;;;;;;4937715;29;19915;-60
2022/05/18 08:08:41;;;;;;;;;;;24.10;38.50;;;;;;4937636;29;19965;-61
2022/05/18 08:16:35;;;;;;;;;;;24.30;38.50;;;;;;4937558;29;19957;-62
2022/05/18 08:19:01;;;;;;;;;;;24.50;38.50;;;;;;4938291;29;19911;-60
2022/05/18 08:21:26;;;;;;;;;;;24.70;38.10;;;;;;4938294;29;19911;-62
2022/05/18 08:23:52;;;;;;;;;;;24.60;37.70;;;;;;4937346;29;20348;-60
2022/05/18 08:26:18;;;;;;;;;;;24.60;38.40;;;;;;4936420;29;19985;-61
2022/05/18 08:28:43;;;;;;;;;;;24.90;38.60;;;;;;4943638;29;20018;-62
2022/05/18 08:31:09;;;;;;;;;;;25.00;37.80;;;;;;4944535;29;19918;-59
2022/05/18 08:33:35;;;;;;;;;;;25.10;38.30;;;;;;4946591;29;20286;-63
2022/05/18 08:36:03;;;;;;;;;;;25.40;38.10;;;;;;4945991;29;19911;-59
2022/05/18 08:38:28;;;;;;;;;;;25.40;37.90;;;;;;4942068;29;19966;-64
2022/05/18 08:40:58;;;;;;;;;;;25.60;37.80;;;;;;4936449;29;20005;-58
2022/05/18 08:43:28;;;;;;;;;;;25.60;37.80;;;;;;4936817;29;19918;-59
2022/05/18 08:45:59;;;;;;;;;;;25.80;37.20;;;;;;4936770;29;19911;-60
2022/05/18 08:48:37;;;;;;;;;;;25.70;37.90;;;;;;4936568;29;19915;-59
2022/05/18 08:51:03;;;;;;;;;;;25.60;36.40;;;;;;4936540;29;19915;-59
2022/05/18 08:53:46;;;;;;;;;;;25.40;36.80;;;;;;4936653;29;19922;-65
2022/05/18 08:56:17;;;;;;;;;;;25.40;37.00;;;;;;4936848;29;20306;-61
2022/05/18 08:58:53;;;;;;;;;;;25.40;38.00;;;;;;4936483;29;20050;-62
2022/05/18 09:01:28;;;;;;;;;;;25.40;38.20;;;;;;4936299;29;20410;-60
2022/05/18 09:03:53;;;;;;;;;;;25.60;37.80;;;;;;4936686;29;19911;-60
2022/05/18 09:06:29;;;;;;;;;;;25.70;37.20;;;;;;4936394;29;19998;-59
2022/05/18 09:11:49;;;;;;;;;;;25.80;37.50;;;;;;4936448;29;20062;-66
2022/05/18 09:14:20;;;;;;;;;;;25.80;37.70;;;;;;4936418;29;20009;-60
2022/05/18 09:16:54;;;;;;;;;;;25.80;37.70;;;;;;4936647;29;20332;-61
2022/05/18 09:19:23;;;;;;;;;;;25.70;37.00;;;;;;4936243;29;19918;-61
2022/05/18 09:22:03;;;;;;;;;;;25.70;37.00;;;;;;4936290;29;19918;-60
2022/05/18 09:24:41;;;;;;;;;;;25.60;38.40;;;;;;4936544;29;20236;-60
2022/05/18 09:27:10;;;;;;;;;;;25.60;37.60;;;;;;4936134;29;19931;-61
2022/05/18 09:29:43;;;;;;;;;;;25.60;36.70;;;;;;4919061;29;19914;-61
2022/05/18 09:32:19;;;;;;;;;;;25.50;37.90;;;;;;4936458;29;19911;-60
2022/05/18 09:34:54;;;;;;;;;;;25.60;37.60;;;;;;4936033;29;19926;-60
2022/05/18 09:37:25;;;;;;;;;;;25.60;37.80;;;;;;4936072;29;19993;-60
2022/05/18 09:39:58;;;;;;;;;;;25.70;38.30;;;;;;4936209;29;20044;-63
2022/05/18 09:42:25;;;;;;;;;;;25.70;37.80;;;;;;4936280;29;19982;-62
2022/05/18 09:44:51;;;;;;;;;;;25.60;37.20;;;;;;4936371;29;19911;-62
2022/05/18 09:47:19;;;;;;;;;;;25.60;38.30;;;;;;4939269;29;19921;-61
2022/05/18 09:49:46;;;;;;;;;;;25.60;38.10;;;;;;4940044;29;19911;-61
2022/05/18 09:52:13;;;;;;;;;;;25.40;37.00;;;;;;4940209;29;19911;-67
2022/05/18 09:54:39;;;;;;;;;;;25.30;37.80;;;;;;4940032;29;19919;-66
2022/05/18 09:57:13;;;;;;;;;;;25.30;38.20;;;;;;4939967;29;19917;-62
2022/05/18 09:59:40;;;;;;;;;;;25.40;38.10;;;;;;4939913;29;20410;-64
2022/05/18 10:07:49;;;;;;;;;;;24.90;37.50;;;;;;4939531;29;19969;-66
2022/05/18 10:10:20;;;;;;;;;;;24.90;38.10;;;;;;4939381;29;20042;-66
2022/05/18 10:13:09;;;;;;;;;;;25.00;38.00;;;;;;4939415;29;20367;-64
2022/05/18 10:15:43;;;;;;;;;;;25.00;38.30;;;;;;4931549;29;20009;-67
2022/05/18 10:18:23;;;;;;;;;;;25.20;37.30;;;;;;4939384;29;20355;-66
2022/05/18 10:21:07;;;;;;;;;;;25.10;37.30;;;;;;4939433;29;19911;-64
2022/05/18 10:23:36;;;;;;;;;;;25.40;37.90;;;;;;4939437;29;19911;-62
2022/05/18 10:26:03;;;;;;;;;;;25.40;38.00;;;;;;4939206;29;20295;-64
2022/05/18 10:28:30;;;;;;;;;;;25.40;37.70;;;;;;4939533;29;19911;-60
2022/05/18 10:30:55;;;;;;;;;;;25.20;37.10;;;;;;4939162;29;20283;-63
2022/05/18 10:33:22;;;;;;;;;;;25.30;38.30;;;;;;4938717;29;19915;-63
2022/05/18 10:35:52;;;;;;;;;;;25.30;37.20;;;;;;4939120;29;19926;-69
2022/05/18 10:38:18;;;;;;;;;;;25.40;37.50;;;;;;4939379;29;20364;-65
2022/05/18 10:40:43;;;;;;;;;;;25.40;37.70;;;;;;4922208;29;20027;-66
2022/05/18 10:43:17;;;;;;;;;;;25.40;37.80;;;;;;4939069;29;19911;-66
2022/05/18 10:45:52;;;;;;;;;;;25.50;38.60;;;;;;4938886;29;19997;-63
2022/05/18 10:48:20;;;;;;;;;;;25.60;38.30;;;;;;4938899;29;19921;-60
2022/05/18 10:50:45;;;;;;;;;;;25.60;37.90;;;;;;4938739;29;19997;-61
2022/05/18 10:53:15;;;;;;;;;;;25.60;37.70;;;;;;4938650;29;19969;-61
2022/05/18 10:56:00;;;;;;;;;;;25.80;38.10;;;;;;4938723;29;19966;-60
2022/05/18 10:58:46;;;;;;;;;;;25.70;37.60;;;;;;4937292;29;19946;-59
2022/05/18 11:01:22;;;;;;;;;;;25.60;37.10;;;;;;4938192;29;20024;-60
2022/05/18 11:03:57;;;;;;;;;;;25.60;37.80;;;;;;4937640;29;20054;-61
2022/05/18 11:06:37;;;;;;;;;;;25.80;37.30;;;;;;4921182;29;19911;-61
2022/05/18 11:09:15;;;;;;;;;;;25.60;37.90;;;;;;4938346;29;20067;-66
2022/05/18 11:11:43;;;;;;;;;;;25.60;37.30;;;;;;4938139;29;19911;-56
2022/05/18 11:14:15;;;;;;;;;;;25.70;37.60;;;;;;4938019;29;19919;-60
2022/05/18 11:16:46;;;;;;;;;;;25.70;37.70;;;;;;4938015;29;19911;-61
2022/05/18 11:19:14;;;;;;;;;;;25.70;37.50;;;;;;4937629;29;19917;-60
2022/05/18 11:21:59;;;;;;;;;;;25.60;37.80;;;;;;4937726;29;19933;-58
2022/05/18 11:24:25;;;;;;;;;;;25.80;38.20;;;;;;4938073;29;19959;-61
2022/05/18 11:26:50;;;;;;;;;;;25.60;37.70;;;;;;4937625;29;19970;-61
2022/05/18 11:29:16;;;;;;;;;;;25.60;37.00;;;;;;4937887;29;19911;-61
2022/05/18 11:32:00;;;;;;;;;;;25.70;38.00;;;;;;4937595;29;19930;-60
2022/05/18 11:34:28;;;;;;;;;;;25.70;37.80;;;;;;4937800;29;19919;-59
2022/05/18 11:37:06;;;;;;;;;;;25.70;37.70;;;;;;4937666;29;19921;-59
2022/05/18 11:39:53;;;;;;;;;;;25.80;37.90;;;;;;4937598;29;20379;-61
2022/05/18 11:42:25;;;;;;;;;;;25.90;37.60;;;;;;4937596;29;19918;-59
2022/05/18 11:45:10;;;;;;;;;;;26.00;37.70;;;;;;4937325;29;20010;-61
2022/05/18 11:47:49;;;;;;;;;;;26.10;38.10;;;;;;4937447;29;19911;-62
2022/05/18 11:50:30;;;;;;;;;;;26.20;36.60;;;;;;4937442;29;19966;-62
2022/05/18 11:53:14;;;;;;;;;;;25.80;36.90;;;;;;4920184;29;19958;-58
2022/05/18 11:55:45;;;;;;;;;;;25.80;37.50;;;;;;4937277;29;19939;-59
2022/05/18 11:58:14;;;;;;;;;;;25.80;37.00;;;;;;4937359;29;19915;-59
2022/05/18 12:00:56;;;;;;;;;;;25.70;37.70;;;;;;4937146;29;19911;-59
2022/05/18 12:03:42;;;;;;;;;;;25.80;37.80;;;;;;4937372;29;19965;-62
2022/05/18 12:06:16;;;;;;;;;;;25.80;37.50;;;;;;4936911;29;19915;-60
2022/05/18 12:09:00;;;;;;;;;;;25.90;37.90;;;;;;4936570;29;19958;-60
2022/05/18 12:11:34;;;;;;;;;;;25.90;37.50;;;;;;4936817;29;19918;-61
2022/05/18 12:14:18;;;;;;;;;;;26.20;38.00;;;;;;4936858;29;19973;-60
2022/05/18 12:16:56;;;;;;;;;;;26.20;37.60;;;;;;4936860;29;19911;-60
2022/05/18 12:19:30;;;;;;;;;;;25.90;36.90;;;;;;4936798;29;19911;-61
2022/05/18 12:22:01;;;;;;;;;;;26.00;37.20;;;;;;4936772;29;19914;-62
2022/05/18 12:24:28;;;;;;;;;;;26.20;38.30;;;;;;4937006;29;19919;-59
2022/05/18 12:26:54;;;;;;;;;;;26.30;37.60;;;;;;4936551;29;19930;-59
2022/05/18 12:29:24;;;;;;;;;;;26.50;37.70;;;;;;4936551;29;19911;-57
2022/05/18 12:31:51;;;;;;;;;;;26.50;37.10;;;;;;4936392;29;19910;-59
2022/05/18 12:34:49;;;;;;;;;;;26.50;36.80;;;;;;4936436;29;20017;-58
2022/05/18 12:37:14;;;;;;;;;;;26.50;37.20;;;;;;4914752;29;20352;-58
2022/05/18 12:39:46;;;;;;;;;;;26.70;37.00;;;;;;4936567;29;19974;-63
2022/05/18 12:42:15;;;;;;;;;;;26.60;36.80;;;;;;4928588;29;19918;-61
2022/05/18 12:44:49;;;;;;;;;;;26.50;36.20;;;;;;4919239;29;20454;-63
2022/05/18 12:47:21;;;;;;;;;;;26.40;35.70;;;;;;4936511;29;19918;-59
2022/05/18 12:49:50;;;;;;;;;;;26.20;36.40;;;;;;4919365;29;19997;-61
2022/05/18 12:52:18;;;;;;;;;;;26.40;36.80;;;;;;4936232;29;19915;-61
2022/05/18 12:54:53;;;;;;;;;;;26.50;37.10;;;;;;4936221;29;19918;-61
2022/05/18 12:57:39;;;;;;;;;;;26.40;37.20;;;;;;4936322;29;19910;-60
2022/05/18 13:00:08;;;;;;;;;;;26.50;37.20;;;;;;4932321;29;19991;-58
2022/05/18 13:02:47;;;;;;;;;;;26.50;36.70;;;;;;4936369;29;20326;-58
2022/05/18 13:05:24;;;;;;;;;;;26.30;36.10;;;;;;4939238;29;19915;-61
2022/05/18 13:07:50;;;;;;;;;;;26.30;36.50;;;;;;4944261;29;19915;-58
2022/05/18 13:10:17;;;;;;;;;;;26.30;36.30;;;;;;4946092;29;19910;-60
2022/05/18 13:12:56;;;;;;;;;;;26.20;37.00;;;;;;4928927;29;20001;-60
2022/05/18 13:15:34;;;;;;;;;;;26.30;36.60;;;;;;4944084;29;20001;-60
2022/05/18 13:18:02;;;;;;;;;;;26.40;36.90;;;;;;4943596;29;19953;-62
2022/05/18 13:20:38;;;;;;;;;;;26.20;35.90;;;;;;4943634;29;19958;-63
2022/05/18 13:23:31;;;;;;;;;;;26.10;35.90;;;;;;4944835;29;19965;-66
2022/05/18 13:26:02;;;;;;;;;;;26.10;36.10;;;;;;4908777;29;20390;-65
2022/05/18 13:28:30;;;;;;;;;;;26.10;37.00;;;;;;4944203;29;19953;-64
2022/05/18 13:30:58;;;;;;;;;;;26.10;37.10;;;;;;4945693;29;19911;-67
2022/05/18 13:33:28;;;;;;;;;;;26.00;36.60;;;;;;4935855;29;20484;-65
2022/05/18 13:35:54;;;;;;;;;;;26.00;37.30;;;;;;4940957;29;19962;-63
2022/05/18 13:38:24;;;;;;;;;;;26.00;36.90;;;;;;4946078;29;20331;-64
2022/05/18 13:40:55;;;;;;;;;;;26.00;37.00;;;;;;4942729;29;19911;-64
2022/05/18 13:43:21;;;;;;;;;;;25.90;36.60;;;;;;4943935;29;19930;-62
2022/05/18 13:45:50;;;;;;;;;;;26.00;36.70;;;;;;4940966;29;19910;-64
2022/05/18 13:48:16;;;;;;;;;;;26.20;36.40;;;;;;4936059;29;19915;-62
2022/05/18 13:51:03;;;;;;;;;;;26.20;36.90;;;;;;4936079;29;19911;-66
2022/05/18 13:53:45;;;;;;;;;;;26.10;35.70;;;;;;4935851;29;19919;-63
2022/05/18 13:56:15;;;;;;;;;;;26.30;36.40;;;;;;4936151;29;19911;-63
2022/05/18 13:58:44;;;;;;;;;;;26.50;35.60;;;;;;4936145;29;20026;-64
2022/05/18 14:01:12;;;;;;;;;;;26.60;36.00;;;;;;4935818;29;19959;-65
2022/05/18 14:03:41;;;;;;;;;;;26.40;35.50;;;;;;4935860;29;19921;-64
2022/05/18 14:06:17;;;;;;;;;;;26.30;36.40;;;;;;4936053;29;19915;-65
2022/05/18 14:08:43;;;;;;;;;;;26.40;36.20;;;;;;4935757;29;19918;-65
2022/05/18 14:11:13;;;;;;;;;;;26.40;35.40;;;;;;4935850;29;19962;-65
2022/05/18 14:13:38;;;;;;;;;;;26.70;35.90;;;;;;4935883;29;20286;-66
2022/05/18 14:16:04;;;;;;;;;;;26.70;36.00;;;;;;4935711;29;19918;-62
2022/05/18 14:18:34;;;;;;;;;;;26.60;35.00;;;;;;4935549;29;20421;-62
2022/05/18 14:21:03;;;;;;;;;;;26.70;35.60;;;;;;4935645;29;19911;-62
2022/05/18 14:23:35;;;;;;;;;;;26.90;34.10;;;;;;4935681;29;19917;-62
2022/05/18 14:26:02;;;;;;;;;;;26.60;35.10;;;;;;4935565;29;19969;-63
2022/05/18 14:28:31;;;;;;;;;;;26.60;35.30;;;;;;4936023;29;19919;-62
2022/05/18 14:30:58;;;;;;;;;;;26.40;35.20;;;;;;4945259;29;20311;-64
2022/05/18 14:33:36;;;;;;;;;;;26.50;35.40;;;;;;4949471;29;19926;-62
2022/05/18 14:36:05;;;;;;;;;;;26.50;35.70;;;;;;4947452;29;19918;-64
2022/05/18 14:38:33;;;;;;;;;;;26.30;34.60;;;;;;4954399;29;19933;-63
2022/05/18 14:41:01;;;;;;;;;;;26.30;34.90;;;;;;4948432;29;19938;-63
2022/05/18 14:43:30;;;;;;;;;;;26.30;35.60;;;;;;4950646;29;19915;-62